createdAt,value
2019-05-07T00:01:23.297Z,17.93
2019-05-07T00:03:52.901Z,18.77
2019-05-07T00:06:23.198Z,20.23
2019-05-07T00:08:52.897Z,18.90
2019-05-07T00:11:22.493Z,21.53
2019-05-07T00:13:52.423Z,19.63
2019-05-07T00:16:22.408Z,22.17
2019-05-07T00:18:52.629Z,17.37
2019-05-07T00:21:23.307Z,19.40
2019-05-07T00:23:53.048Z,18.27
2019-05-07T00:26:22.739Z,16.40
2019-05-07T00:28:52.804Z,15.63
2019-05-07T00:31:23.254Z,19.53
2019-05-07T00:33:53.195Z,15.17
2019-05-07T00:36:28.911Z,14.40
2019-05-07T00:39:09.152Z,18.67
2019-05-07T00:41:47.228Z,15.93
2019-05-07T00:44:17.147Z,19.83
2019-05-07T00:46:46.639Z,21.00
2019-05-07T00:49:16.114Z,18.90
2019-05-07T00:51:45.616Z,18.13
2019-05-07T00:54:15.084Z,16.30
2019-05-07T00:56:44.576Z,19.37
2019-05-07T00:59:14.033Z,19.03
2019-05-07T01:01:43.561Z,20.47
2019-05-07T01:04:13.037Z,19.13
2019-05-07T01:06:42.579Z,20.50
2019-05-07T01:09:12.416Z,20.47
2019-05-07T01:11:42.865Z,21.20
2019-05-07T01:14:12.723Z,21.67
2019-05-07T01:16:42.353Z,20.77
2019-05-07T01:19:12.526Z,25.20
2019-05-07T01:21:43.224Z,21.67
2019-05-07T01:24:13.025Z,25.00
2019-05-07T01:26:42.703Z,24.07
2019-05-07T01:29:12.988Z,23.63
2019-05-07T01:32:07.442Z,22.63
2019-05-07T01:35:02.502Z,23.57
2019-05-07T01:37:32.702Z,24.27
2019-05-07T01:40:03.128Z,26.10
2019-05-07T01:42:33.763Z,25.23
2019-05-07T01:45:04.331Z,24.77
2019-05-07T01:47:33.834Z,22.00
2019-05-07T01:50:03.324Z,23.47
2019-05-07T01:52:33.270Z,21.23
2019-05-07T01:55:03.406Z,25.90
2019-05-07T01:57:33.274Z,25.10
2019-05-07T02:00:02.820Z,23.27
2019-05-07T02:02:48.487Z,23.80
2019-05-07T02:05:33.201Z,25.07
2019-05-07T02:08:05.052Z,21.47
2019-05-07T02:10:48.039Z,25.40
2019-05-07T02:13:17.516Z,21.20
2019-05-07T02:15:58.536Z,14.70
2019-05-07T02:18:18.148Z,14.10
2019-05-07T02:20:47.610Z,13.03
2019-05-07T02:23:17.082Z,14.50
2019-05-07T02:25:46.565Z,12.97
2019-05-07T02:28:16.031Z,11.60
2019-05-07T02:30:45.512Z,12.77
2019-05-07T02:33:15.003Z,13.37
2019-05-07T02:35:44.495Z,13.43
2019-05-07T02:38:38.902Z,14.30
2019-05-07T02:41:14.216Z,14.90
2019-05-07T02:43:43.619Z,16.50
2019-05-07T02:46:29.908Z,17.07
2019-05-07T02:49:02.866Z,15.03
2019-05-07T02:51:35.939Z,13.07
2019-05-07T02:54:27.208Z,12.97
2019-05-07T02:56:56.729Z,12.73
2019-05-07T02:59:26.179Z,11.17
2019-05-07T03:01:55.661Z,12.80
2019-05-07T03:04:25.461Z,12.37
2019-05-07T03:06:55.269Z,11.43
2019-05-07T03:09:24.743Z,13.57
2019-05-07T03:11:54.232Z,15.70
2019-05-07T03:14:23.822Z,16.23
2019-05-07T03:16:53.842Z,17.97
2019-05-07T03:19:24.335Z,33.10
2019-05-07T03:21:54.924Z,24.83
2019-05-07T03:24:44.772Z,24.53
2019-05-07T03:27:14.756Z,51.03
2019-05-07T03:29:49.634Z,65.50
2019-05-07T03:32:40.119Z,136.30
2019-05-07T03:35:20.146Z,60.10
2019-05-07T03:37:49.679Z,53.90
2019-05-07T03:40:19.156Z,53.50
2019-05-07T03:42:48.620Z,121.23
2019-05-07T03:45:37.033Z,123.90
2019-05-07T03:48:14.508Z,25.13
2019-05-07T03:50:43.982Z,17.80
2019-05-07T03:53:14.393Z,15.37
2019-05-07T03:55:44.983Z,48.00
2019-05-07T03:58:14.974Z,20.57
2019-05-07T04:00:45.203Z,28.37
2019-05-07T04:03:19.100Z,88.20
2019-05-07T04:05:45.956Z,56.13
2019-05-07T04:08:15.422Z,54.37
2019-05-07T04:10:44.924Z,19.60
2019-05-07T04:13:14.392Z,209.77
2019-05-07T04:15:44.374Z,127.50
2019-05-07T04:18:14.088Z,117.77
2019-05-07T04:20:44.007Z,59.37
2019-05-07T04:23:14.269Z,113.00
2019-05-07T04:26:08.772Z,86.00
2019-05-07T04:29:05.574Z,53.83
2019-05-07T04:31:38.642Z,18.60
2019-05-07T04:34:29.821Z,22.63
2019-05-07T04:36:59.303Z,32.23
2019-05-07T04:39:28.785Z,48.53
2019-05-07T04:41:58.268Z,135.63
2019-05-07T04:44:27.761Z,99.33
2019-05-07T04:46:57.237Z,16.43
2019-05-07T04:49:26.710Z,76.37
2019-05-07T04:52:12.511Z,145.93
2019-05-07T04:54:43.660Z,43.57
2019-05-07T04:57:27.830Z,82.57
2019-05-07T04:59:57.962Z,63.27
2019-05-07T05:02:46.902Z,12.47
2019-05-07T05:05:17.495Z,20.90
2019-05-07T05:07:47.008Z,31.53
2019-05-07T05:10:16.513Z,11.20
2019-05-07T05:12:46.056Z,21.10
2019-05-07T05:15:16.229Z,24.63
2019-05-07T05:17:50.495Z,29.83
2019-05-07T05:20:19.247Z,27.03
2019-05-07T05:23:12.107Z,22.07
2019-05-07T05:25:43.165Z,45.80
2019-05-07T05:28:13.563Z,82.13
2019-05-07T05:30:47.294Z,73.97
2019-05-07T05:33:16.746Z,59.13
2019-05-07T05:35:46.285Z,16.47
2019-05-07T05:38:15.743Z,12.40
2019-05-07T05:40:45.270Z,18.90
2019-05-07T05:43:27.687Z,50.10
2019-05-07T05:45:59.297Z,28.13
2019-05-07T05:48:28.766Z,17.33
2019-05-07T05:51:20.074Z,15.63
2019-05-07T05:54:14.932Z,20.83
2019-05-07T05:56:51.838Z,17.07
2019-05-07T05:59:49.163Z,13.40
2019-05-07T06:02:43.849Z,55.73
2019-05-07T06:05:34.350Z,28.67
2019-05-07T06:08:12.371Z,29.37
2019-05-07T06:10:47.886Z,37.53
2019-05-07T06:13:52.706Z,19.67
2019-05-07T06:16:26.477Z,15.00
2019-05-07T06:19:14.869Z,17.80
2019-05-07T06:22:02.109Z,25.60
2019-05-07T06:24:42.666Z,21.97
2019-05-07T06:27:12.310Z,27.13
2019-05-07T06:29:42.614Z,18.63
2019-05-07T06:32:13.856Z,19.37
2019-05-07T06:34:44.748Z,17.27
2019-05-07T06:37:14.618Z,16.53
2019-05-07T06:39:49.610Z,18.57
2019-05-07T06:42:33.134Z,19.30
2019-05-07T06:45:12.335Z,21.43
2019-05-07T06:47:42.572Z,16.53
2019-05-07T06:50:14.593Z,16.53
2019-05-07T06:52:44.061Z,16.77
2019-05-07T06:55:13.912Z,16.67
2019-05-07T06:57:43.383Z,17.13
2019-05-07T07:00:32.799Z,14.10
2019-05-07T07:03:14.062Z,14.97
2019-05-07T07:06:14.782Z,13.60
2019-05-07T07:08:58.963Z,15.27
2019-05-07T07:11:34.498Z,18.13
2019-05-07T07:14:04.059Z,11.73
2019-05-07T07:16:33.548Z,18.07
2019-05-07T07:19:03.410Z,12.70
2019-05-07T07:21:33.172Z,11.47
2019-05-07T07:24:03.093Z,11.93
2019-05-07T07:26:34.169Z,12.80
2019-05-07T07:29:03.685Z,12.00
2019-05-07T07:31:37.450Z,12.37
2019-05-07T07:34:07.333Z,15.73
2019-05-07T07:36:43.159Z,12.03
2019-05-07T07:39:12.783Z,14.17
2019-05-07T07:41:53.652Z,13.47
2019-05-07T07:44:23.160Z,14.20
2019-05-07T07:46:53.209Z,15.33
2019-05-07T07:49:22.835Z,16.67
2019-05-07T07:51:52.720Z,12.90
2019-05-07T07:54:22.823Z,11.07
2019-05-07T07:57:12.612Z,15.87
2019-05-07T07:59:48.574Z,14.50
2019-05-07T08:02:46.112Z,11.00
2019-05-07T08:05:15.608Z,11.53
2019-05-07T08:07:45.108Z,11.80
2019-05-07T08:10:14.827Z,9.50
2019-05-07T08:12:44.332Z,8.87
2019-05-07T08:15:20.267Z,8.70
2019-05-07T08:17:45.072Z,11.37
2019-05-07T08:20:15.265Z,10.13
2019-05-07T08:22:44.752Z,5.53
2019-05-07T08:25:14.308Z,7.67
2019-05-07T08:27:43.768Z,5.90
2019-05-07T08:30:17.897Z,8.43
2019-05-07T08:33:09.781Z,7.57
2019-05-07T08:35:52.202Z,6.40
2019-05-07T08:38:21.984Z,7.40
2019-05-07T08:40:52.113Z,9.03
2019-05-07T08:43:21.925Z,8.37
2019-05-07T08:46:16.527Z,6.57
2019-05-07T08:48:48.456Z,8.93
2019-05-07T08:51:17.901Z,9.93
2019-05-07T08:53:50.070Z,7.77
2019-05-07T08:56:19.532Z,6.70
2019-05-07T08:58:49.236Z,6.17
2019-05-07T09:01:18.729Z,11.83
2019-05-07T09:03:48.199Z,8.37
2019-05-07T09:06:21.995Z,5.13
2019-05-07T09:08:52.659Z,5.83
2019-05-07T09:11:23.035Z,6.53
2019-05-07T09:13:52.605Z,5.70
2019-05-07T09:16:23.288Z,6.10
2019-05-07T09:18:52.855Z,3.93
2019-05-07T09:21:22.755Z,7.60
2019-05-07T09:23:52.722Z,5.83
2019-05-07T09:26:26.761Z,5.03
2019-05-07T09:29:02.777Z,6.20
2019-05-07T09:31:57.491Z,8.13
2019-05-07T09:34:28.486Z,8.30
2019-05-07T09:36:59.606Z,8.60
2019-05-07T09:39:29.126Z,6.07
2019-05-07T09:41:58.608Z,6.07
2019-05-07T09:44:28.097Z,7.10
2019-05-07T09:46:57.583Z,9.17
2019-05-07T09:49:27.046Z,9.80
2019-05-07T09:51:56.517Z,6.27
2019-05-07T09:54:25.985Z,6.43
2019-05-07T09:56:55.465Z,6.80
2019-05-07T09:59:24.921Z,7.53
2019-05-07T10:01:54.367Z,6.87
2019-05-07T10:04:23.821Z,7.87
2019-05-07T10:06:53.300Z,8.97
2019-05-07T10:09:22.786Z,10.07
2019-05-07T10:12:02.800Z,9.07
2019-05-07T10:14:33.144Z,5.63
2019-05-07T10:17:11.989Z,7.13
2019-05-07T10:19:41.805Z,6.93
2019-05-07T10:22:12.643Z,7.77
2019-05-07T10:24:41.914Z,6.93
2019-05-07T10:27:12.620Z,6.43
2019-05-07T10:29:42.811Z,6.00
2019-05-07T10:32:12.972Z,4.63
2019-05-07T10:34:42.460Z,6.27
2019-05-07T10:37:12.140Z,4.17
2019-05-07T10:39:43.067Z,4.97
2019-05-07T10:42:12.811Z,5.40
2019-05-07T10:44:56.800Z,7.80
2019-05-07T10:47:38.114Z,4.77
2019-05-07T10:50:17.090Z,5.30
2019-05-07T10:52:46.571Z,5.83
2019-05-07T10:55:16.167Z,6.60
2019-05-07T10:57:45.656Z,5.07
2019-05-07T11:00:17.611Z,4.60
2019-05-07T11:02:47.199Z,5.20
2019-05-07T11:05:16.763Z,3.87
2019-05-07T11:07:46.225Z,4.47
2019-05-07T11:10:16.256Z,5.30
2019-05-07T11:12:45.709Z,6.47
2019-05-07T11:15:15.599Z,4.63
2019-05-07T11:17:59.538Z,6.87
2019-05-07T11:20:29.004Z,5.13
2019-05-07T11:22:58.481Z,5.37
2019-05-07T11:25:28.036Z,5.13
2019-05-07T11:27:57.498Z,5.73
2019-05-07T11:30:26.974Z,6.40
2019-05-07T11:32:56.461Z,7.90
2019-05-07T11:35:25.953Z,3.73
2019-05-07T11:37:55.425Z,4.10
2019-05-07T11:40:25.103Z,5.07
2019-05-07T11:43:09.928Z,4.67
2019-05-07T11:46:01.967Z,5.93
2019-05-07T11:48:36.194Z,7.77
2019-05-07T11:51:23.231Z,5.87
2019-05-07T11:54:09.296Z,7.70
2019-05-07T11:56:38.997Z,7.07
2019-05-07T11:59:08.480Z,5.10
2019-05-07T12:01:46.197Z,5.20
2019-05-07T12:04:12.523Z,4.97
2019-05-07T12:06:42.323Z,4.30
2019-05-07T12:09:12.221Z,6.70
2019-05-07T12:11:42.588Z,4.83
2019-05-07T12:14:12.521Z,6.70
2019-05-07T12:16:42.687Z,7.83
2019-05-07T12:19:13.164Z,5.33
2019-05-07T12:21:43.592Z,3.80
2019-05-07T12:24:16.265Z,7.07
2019-05-07T12:26:44.622Z,4.20
2019-05-07T12:29:14.102Z,4.60
2019-05-07T12:32:08.558Z,4.95
2019-05-07T12:34:42.350Z,5.35
2019-05-07T12:37:12.395Z,4.35
2019-05-07T12:39:42.330Z,4.90
2019-05-07T12:42:12.307Z,6.50
2019-05-07T12:44:42.627Z,5.45
2019-05-07T12:47:22.525Z,5.83
2019-05-07T12:49:52.056Z,4.87
2019-05-07T12:52:33.277Z,4.60
2019-05-07T12:55:23.128Z,5.40
2019-05-07T12:57:52.757Z,4.97
2019-05-07T13:00:51.862Z,4.53
2019-05-07T13:03:42.808Z,4.50
2019-05-07T13:06:12.659Z,4.92
2019-05-07T13:08:42.173Z,7.10
2019-05-07T13:11:13.249Z,5.43
2019-05-07T13:13:42.774Z,7.23
2019-05-07T13:16:12.830Z,6.63
2019-05-07T13:18:42.503Z,5.00
2019-05-07T13:21:12.042Z,5.30
2019-05-07T13:23:42.146Z,5.70
2019-05-07T13:26:11.721Z,5.83
2019-05-07T13:28:41.981Z,4.20
2019-05-07T13:31:12.592Z,6.20
2019-05-07T13:33:43.841Z,4.53
2019-05-07T13:36:13.314Z,6.27
2019-05-07T13:39:05.810Z,7.97
2019-05-07T13:41:55.980Z,5.10
2019-05-07T13:44:55.008Z,4.17
2019-05-07T13:47:26.873Z,8.83
2019-05-07T13:49:57.837Z,4.90
2019-05-07T13:52:27.370Z,4.77
2019-05-07T13:54:56.919Z,5.95
2019-05-07T13:57:26.504Z,5.65
2019-05-07T14:00:02.387Z,5.60
2019-05-07T14:02:32.342Z,7.53
2019-05-07T14:05:01.937Z,10.60
2019-05-07T14:07:34.071Z,4.80
2019-05-07T14:10:03.651Z,4.60
2019-05-07T14:12:33.753Z,6.20
2019-05-07T14:15:03.821Z,6.07
2019-05-07T14:17:33.310Z,5.97
2019-05-07T14:20:04.905Z,4.40
2019-05-07T14:22:33.874Z,4.72
2019-05-07T14:25:03.343Z,4.55
2019-05-07T14:27:32.924Z,4.15
2019-05-07T14:30:02.839Z,4.47
2019-05-07T14:32:44.407Z,5.40
2019-05-07T14:35:23.564Z,6.22
2019-05-07T14:38:13.936Z,4.47
2019-05-07T14:40:43.426Z,4.40
2019-05-07T14:43:22.414Z,5.40
2019-05-07T14:45:52.281Z,5.42
2019-05-07T14:48:22.521Z,4.25
2019-05-07T14:50:53.064Z,4.90
2019-05-07T14:53:23.267Z,4.08
2019-05-07T14:55:52.731Z,3.85
2019-05-07T14:58:22.215Z,4.08
2019-05-07T15:00:51.960Z,4.10
2019-05-07T15:03:22.895Z,3.62
2019-05-07T15:05:52.628Z,4.17
2019-05-07T15:08:22.162Z,3.75
2019-05-07T15:10:52.487Z,3.85
2019-05-07T15:13:22.415Z,4.00
2019-05-07T15:15:52.580Z,4.60
2019-05-07T15:18:26.832Z,3.75
2019-05-07T15:20:56.319Z,4.70
2019-05-07T15:23:35.264Z,4.80
2019-05-07T15:26:05.545Z,4.45
2019-05-07T15:28:36.011Z,4.40
2019-05-07T15:31:12.457Z,4.20
2019-05-07T15:33:41.978Z,4.87
2019-05-07T15:36:11.944Z,5.37
2019-05-07T15:38:42.883Z,6.80
2019-05-07T15:41:12.747Z,5.63
2019-05-07T15:43:45.850Z,5.27
2019-05-07T15:46:13.451Z,4.23
2019-05-07T15:48:42.927Z,5.30
2019-05-07T15:51:12.398Z,6.83
2019-05-07T15:53:51.906Z,5.63
2019-05-07T15:56:21.910Z,5.80
2019-05-07T15:58:51.833Z,5.93
2019-05-07T16:01:22.196Z,5.30
2019-05-07T16:03:54.945Z,6.30
2019-05-07T16:06:23.102Z,9.30
2019-05-07T16:08:55.056Z,9.77
2019-05-07T16:11:24.526Z,8.10
2019-05-07T16:14:12.434Z,10.03
2019-05-07T16:16:45.575Z,9.13
2019-05-07T16:19:26.309Z,10.40
2019-05-07T16:21:56.538Z,9.13
2019-05-07T16:24:26.029Z,11.00
2019-05-07T16:26:54.935Z,9.80
2019-05-07T16:29:24.394Z,9.40
2019-05-07T16:31:53.896Z,9.87
2019-05-07T16:34:24.667Z,9.70
2019-05-07T16:36:54.298Z,11.47
2019-05-07T16:39:23.782Z,10.13
2019-05-07T16:41:53.244Z,10.50
2019-05-07T16:44:22.744Z,9.00
2019-05-07T16:46:53.448Z,10.33
2019-05-07T16:49:23.049Z,9.87
2019-05-07T16:51:52.582Z,9.30
2019-05-07T16:54:22.014Z,9.77
2019-05-07T16:57:09.465Z,9.63
2019-05-07T16:59:38.960Z,9.90
2019-05-07T17:02:14.547Z,11.60
2019-05-07T17:05:03.201Z,9.27
2019-05-07T17:07:32.643Z,9.37
2019-05-07T17:10:02.600Z,9.27
2019-05-07T17:12:32.582Z,9.60
2019-05-07T17:15:02.929Z,11.43
2019-05-07T17:17:32.750Z,9.10
2019-05-07T17:20:02.938Z,9.47
2019-05-07T17:22:32.556Z,10.30
2019-05-07T17:25:22.730Z,9.90
2019-05-07T17:27:52.204Z,10.40
2019-05-07T17:30:21.685Z,10.60
2019-05-07T17:32:52.554Z,9.77
2019-05-07T17:35:22.442Z,10.80
2019-05-07T17:37:52.010Z,9.83
2019-05-07T17:40:22.589Z,11.73
2019-05-07T17:42:52.579Z,10.17
2019-05-07T17:45:22.758Z,10.37
2019-05-07T17:47:52.611Z,12.83
2019-05-07T17:50:26.042Z,10.90
2019-05-07T17:52:55.540Z,11.20
2019-05-07T17:55:25.017Z,10.47
2019-05-07T17:57:54.577Z,11.33
2019-05-07T18:00:24.072Z,10.83
2019-05-07T18:03:27.842Z,11.53
2019-05-07T18:05:57.308Z,12.27
2019-05-07T18:08:26.796Z,11.63
2019-05-07T18:10:56.921Z,11.10
2019-05-07T18:13:26.421Z,10.70
2019-05-07T18:15:58.289Z,11.77
2019-05-07T18:18:27.788Z,12.70
2019-05-07T18:20:57.272Z,12.00
2019-05-07T18:23:26.782Z,11.67
2019-05-07T18:25:58.585Z,12.03
2019-05-07T18:28:32.362Z,12.70
2019-05-07T18:31:02.079Z,11.07
2019-05-07T18:33:41.788Z,11.83
2019-05-07T18:36:12.159Z,12.40
2019-05-07T18:38:42.442Z,11.20
2019-05-07T18:41:12.350Z,11.47
2019-05-07T18:43:42.298Z,12.70
2019-05-07T18:46:12.874Z,11.40
2019-05-07T18:48:42.847Z,12.60
2019-05-07T18:51:12.165Z,12.50
2019-05-07T18:53:42.540Z,13.23
2019-05-07T18:56:12.617Z,13.63
2019-05-07T18:58:42.706Z,13.97
2019-05-07T19:01:13.629Z,12.00
2019-05-07T19:03:43.113Z,12.33
2019-05-07T19:06:13.507Z,13.30
2019-05-07T19:08:43.314Z,13.40
2019-05-07T19:11:12.891Z,13.83
2019-05-07T19:13:42.382Z,14.87
2019-05-07T19:16:12.429Z,14.07
2019-05-07T19:18:43.199Z,14.20
2019-05-07T19:21:12.933Z,15.77
2019-05-07T19:23:42.541Z,15.30
2019-05-07T19:26:13.145Z,16.80
2019-05-07T19:28:42.779Z,16.17
2019-05-07T19:31:12.581Z,15.17
2019-05-07T19:33:43.408Z,16.50
2019-05-07T19:36:18.380Z,16.47
2019-05-07T19:38:52.553Z,15.43
2019-05-07T19:41:26.733Z,16.37
2019-05-07T19:43:57.899Z,15.73
2019-05-07T19:46:28.017Z,16.87
2019-05-07T19:48:58.047Z,15.40
2019-05-07T19:51:32.101Z,15.87
2019-05-07T19:54:02.155Z,14.60
2019-05-07T19:56:34.398Z,14.43
2019-05-07T19:59:04.017Z,14.90
2019-05-07T20:01:42.572Z,16.90
2019-05-07T20:04:13.277Z,17.20
2019-05-07T20:06:43.911Z,17.87
2019-05-07T20:09:15.773Z,16.63
2019-05-07T20:11:47.416Z,72.53
2019-05-07T20:14:16.891Z,30.90
2019-05-07T20:16:46.396Z,32.03
2019-05-07T20:19:15.890Z,29.10
2019-05-07T20:21:45.394Z,29.03
2019-05-07T20:24:14.878Z,35.37
2019-05-07T20:26:44.366Z,29.03
2019-05-07T20:29:13.875Z,31.13
2019-05-07T20:31:43.374Z,39.97
2019-05-07T20:34:13.231Z,36.27
2019-05-07T20:36:42.936Z,22.20
2019-05-07T20:39:12.889Z,19.87
2019-05-07T20:41:42.912Z,23.93
2019-05-07T20:44:12.727Z,23.03
2019-05-07T20:46:42.323Z,20.27
2019-05-07T20:49:13.081Z,21.33
2019-05-07T20:51:43.078Z,21.57
2019-05-07T20:54:37.291Z,22.50
2019-05-07T20:57:09.919Z,17.60
2019-05-07T20:59:39.369Z,17.20
2019-05-07T21:02:08.859Z,16.30
2019-05-07T21:04:38.335Z,18.17
2019-05-07T21:07:07.803Z,18.50
2019-05-07T21:09:37.291Z,17.50
2019-05-07T21:12:06.772Z,18.27
2019-05-07T21:14:36.279Z,18.23
2019-05-07T21:17:05.771Z,19.07
2019-05-07T21:19:35.307Z,18.93
2019-05-07T21:22:04.737Z,19.60
2019-05-07T21:24:34.194Z,18.63
2019-05-07T21:27:03.666Z,18.47
2019-05-07T21:29:33.154Z,19.13
2019-05-07T21:32:03.283Z,17.17
2019-05-07T21:34:33.119Z,19.07
2019-05-07T21:37:03.240Z,19.10
2019-05-07T21:39:33.120Z,20.87
2019-05-07T21:42:02.887Z,19.30
2019-05-07T21:44:32.724Z,20.37
2019-05-07T21:47:03.873Z,20.87
2019-05-07T21:49:33.496Z,20.33
2019-05-07T21:52:02.962Z,20.97
2019-05-07T21:54:38.124Z,21.07
2019-05-07T21:57:32.984Z,19.83
2019-05-07T22:00:22.120Z,24.93
2019-05-07T22:02:52.598Z,23.00
2019-05-07T22:05:22.536Z,22.70
2019-05-07T22:07:54.131Z,21.87
2019-05-07T22:10:23.219Z,20.83
2019-05-07T22:12:54.651Z,19.73
2019-05-07T22:15:23.832Z,23.80
2019-05-07T22:17:53.336Z,21.50
2019-05-07T22:20:22.844Z,21.80
2019-05-07T22:22:52.283Z,21.27
2019-05-07T22:25:22.274Z,19.77
2019-05-07T22:27:53.005Z,20.90
2019-05-07T22:30:29.538Z,20.30
2019-05-07T22:33:07.019Z,19.77
2019-05-07T22:35:39.588Z,18.90
2019-05-07T22:38:09.046Z,19.03
2019-05-07T22:40:38.550Z,20.83
2019-05-07T22:43:08.029Z,18.07
2019-05-07T22:45:37.541Z,18.60
2019-05-07T22:48:06.418Z,19.80
2019-05-07T22:50:35.900Z,17.13
2019-05-07T22:53:05.390Z,16.93
2019-05-07T22:55:34.873Z,17.30
2019-05-07T22:58:09.627Z,17.13
2019-05-07T23:00:52.783Z,16.80
2019-05-07T23:03:22.824Z,16.77
2019-05-07T23:05:53.984Z,17.17
2019-05-07T23:08:23.476Z,17.20
2019-05-07T23:10:52.945Z,17.90
2019-05-07T23:13:22.702Z,17.07
2019-05-07T23:15:53.856Z,17.17
2019-05-07T23:18:23.420Z,16.83
2019-05-07T23:20:52.916Z,17.93
2019-05-07T23:23:22.381Z,16.77
2019-05-07T23:25:54.309Z,17.10
2019-05-07T23:28:23.782Z,17.33
2019-05-07T23:30:53.260Z,16.13
2019-05-07T23:33:22.783Z,16.57
2019-05-07T23:35:52.847Z,16.70
2019-05-07T23:38:22.707Z,17.73
2019-05-07T23:41:16.009Z,18.33
2019-05-07T23:44:04.777Z,19.27
2019-05-07T23:46:34.303Z,17.73
2019-05-07T23:49:03.751Z,17.43
2019-05-07T23:51:33.239Z,17.10
2019-05-07T23:54:04.297Z,18.73
2019-05-07T23:56:33.834Z,17.43
2019-05-07T23:59:03.591Z,17.63
